Time;durP1;ratioP1;P1;durP2;ratioP2;P2;SDS_P1;SDS_P2;PMS_P1;PMS_P2;Temp;Humidity;BMP_temperature;BMP_pressure;BME280_temperature;BME280_humidity;BME280_pressure;Samples;Min_cycle;Max_cycle;Signal;HPM_P1;HPM_P2
2023/07/19 00:01:47;;;;;;;;;;;27.00;58.20;;;;;;5094453;28;20297;-55
2023/07/19 00:04:14;;;;;;;;;;;27.00;58.20;;;;;;5093986;28;19924;-55
2023/07/19 00:06:41;;;;;;;;;;;27.00;58.30;;;;;;5093243;28;19924;-55
2023/07/19 00:09:08;;;;;;;;;;;27.00;58.30;;;;;;5093576;28;20015;-52
2023/07/19 00:11:35;;;;;;;;;;;27.00;58.30;;;;;;5093770;28;19924;-55
2023/07/19 00:14:05;;;;;;;;;;;27.00;58.30;;;;;;5093891;28;19963;-53
2023/07/19 00:16:33;;;;;;;;;;;27.00;58.30;;;;;;5093896;28;19924;-56
2023/07/19 00:19:00;;;;;;;;;;;27.00;58.30;;;;;;5093588;28;19925;-53
2023/07/19 00:21:45;;;;;;;;;;;27.00;58.30;;;;;;5093586;28;19928;-56
2023/07/19 00:24:12;;;;;;;;;;;27.00;58.30;;;;;;5093689;28;19928;-54
2023/07/19 00:26:39;;;;;;;;;;;27.00;58.30;;;;;;5094368;28;19970;-53
2023/07/19 00:29:06;;;;;;;;;;;27.00;58.30;;;;;;5094057;28;20342;-55
2023/07/19 00:31:34;;;;;;;;;;;27.00;58.40;;;;;;5094220;28;20015;-55
2023/07/19 00:34:01;;;;;;;;;;;26.90;58.30;;;;;;5094063;28;19977;-56
2023/07/19 00:36:28;;;;;;;;;;;26.90;58.30;;;;;;5094560;28;19977;-55
2023/07/19 00:38:55;;;;;;;;;;;26.90;58.30;;;;;;5093549;28;19928;-56
2023/07/19 00:41:22;;;;;;;;;;;26.90;58.30;;;;;;5094066;28;20031;-55
2023/07/19 00:43:50;;;;;;;;;;;26.90;58.30;;;;;;5094228;28;19931;-56
2023/07/19 00:46:18;;;;;;;;;;;26.90;58.30;;;;;;5093878;28;20027;-55
2023/07/19 00:48:45;;;;;;;;;;;26.90;58.30;;;;;;5093150;28;19931;-54
2023/07/19 00:51:12;;;;;;;;;;;26.90;58.30;;;;;;5094533;28;20011;-56
2023/07/19 00:53:39;;;;;;;;;;;26.90;58.40;;;;;;5093451;28;20357;-55
2023/07/19 00:56:07;;;;;;;;;;;26.90;58.80;;;;;;5094037;28;19977;-54
2023/07/19 00:58:35;;;;;;;;;;;26.90;58.30;;;;;;5093667;28;19924;-56
2023/07/19 01:01:03;;;;;;;;;;;26.90;58.30;;;;;;5093211;28;19994;-54
2023/07/19 01:03:30;;;;;;;;;;;26.90;58.30;;;;;;5092986;28;19930;-55
2023/07/19 01:05:58;;;;;;;;;;;26.90;58.30;;;;;;5093243;28;19989;-57
2023/07/19 01:08:26;;;;;;;;;;;26.90;58.30;;;;;;5092714;28;20452;-56
2023/07/19 01:10:53;;;;;;;;;;;26.90;58.30;;;;;;5091852;28;19993;-55
2023/07/19 01:13:20;;;;;;;;;;;26.90;58.30;;;;;;5093248;28;20014;-53
2023/07/19 01:15:47;;;;;;;;;;;26.90;58.30;;;;;;5093497;28;20315;-55
2023/07/19 01:18:15;;;;;;;;;;;26.90;58.30;;;;;;5093936;28;20300;-56
2023/07/19 01:20:42;;;;;;;;;;;26.90;58.30;;;;;;5092907;28;19978;-55
2023/07/19 01:23:09;;;;;;;;;;;26.90;58.30;;;;;;5093610;28;20011;-56
2023/07/19 01:25:36;;;;;;;;;;;26.90;58.30;;;;;;5092618;28;19924;-56
2023/07/19 01:28:04;;;;;;;;;;;26.90;58.30;;;;;;5092157;28;20380;-55
2023/07/19 01:30:31;;;;;;;;;;;26.90;58.30;;;;;;5092820;28;20014;-54
2023/07/19 01:32:58;;;;;;;;;;;26.90;58.30;;;;;;5093670;28;19960;-54
2023/07/19 01:35:25;;;;;;;;;;;26.90;58.30;;;;;;5093534;28;19924;-54
2023/07/19 01:37:52;;;;;;;;;;;26.90;58.30;;;;;;5093460;28;19981;-55
2023/07/19 01:40:19;;;;;;;;;;;26.90;58.30;;;;;;5092988;28;19978;-54
2023/07/19 01:42:47;;;;;;;;;;;26.90;58.30;;;;;;5093442;28;19956;-56
2023/07/19 01:45:14;;;;;;;;;;;26.90;58.30;;;;;;5093237;28;19978;-56
2023/07/19 01:47:40;;;;;;;;;;;26.90;58.40;;;;;;5093542;28;19951;-54
2023/07/19 01:50:08;;;;;;;;;;;26.90;58.40;;;;;;5092975;28;20419;-55
2023/07/19 01:52:35;;;;;;;;;;;26.90;58.40;;;;;;5092876;28;19924;-56
2023/07/19 01:55:02;;;;;;;;;;;26.90;58.40;;;;;;5093030;28;19993;-55
2023/07/19 01:57:30;;;;;;;;;;;26.90;58.40;;;;;;5093121;28;20323;-56
2023/07/19 01:59:56;;;;;;;;;;;26.90;58.40;;;;;;5094101;28;19924;-55
2023/07/19 02:02:23;;;;;;;;;;;26.90;58.40;;;;;;5096924;28;19924;-55
2023/07/19 02:04:51;;;;;;;;;;;26.80;58.40;;;;;;5096646;28;19986;-56
2023/07/19 02:07:18;;;;;;;;;;;26.80;58.40;;;;;;5096436;28;20311;-54
2023/07/19 02:09:46;;;;;;;;;;;26.80;58.40;;;;;;5096132;28;20015;-55
2023/07/19 02:12:12;;;;;;;;;;;26.80;58.40;;;;;;5096170;28;19983;-55
2023/07/19 02:14:39;;;;;;;;;;;26.80;58.40;;;;;;5096883;28;19971;-56
2023/07/19 02:17:06;;;;;;;;;;;26.80;58.40;;;;;;5097160;28;20387;-56
2023/07/19 02:19:33;;;;;;;;;;;26.80;58.40;;;;;;5096482;28;19924;-54
2023/07/19 02:22:01;;;;;;;;;;;26.80;58.40;;;;;;5096728;28;19924;-53
2023/07/19 02:24:28;;;;;;;;;;;26.80;58.40;;;;;;5096756;28;20034;-55
2023/07/19 02:26:55;;;;;;;;;;;26.80;58.40;;;;;;5096538;28;19924;-55
2023/07/19 02:29:22;;;;;;;;;;;26.80;58.40;;;;;;5096353;28;20168;-55
2023/07/19 02:31:51;;;;;;;;;;;26.80;58.40;;;;;;5096778;28;20453;-56
2023/07/19 02:34:20;;;;;;;;;;;26.80;58.40;;;;;;5095711;28;19963;-54
2023/07/19 02:36:48;;;;;;;;;;;26.80;58.50;;;;;;5096989;28;19969;-53
2023/07/19 02:39:15;;;;;;;;;;;26.80;58.50;;;;;;5094690;28;19932;-55
2023/07/19 02:41:42;;;;;;;;;;;26.80;58.50;;;;;;5096006;28;19975;-56
2023/07/19 02:44:09;;;;;;;;;;;26.80;58.60;;;;;;5096248;28;19924;-55
2023/07/19 02:46:37;;;;;;;;;;;26.80;58.50;;;;;;5096403;28;19963;-56
2023/07/19 02:49:04;;;;;;;;;;;26.80;58.50;;;;;;5095985;28;19975;-54
2023/07/19 02:51:31;;;;;;;;;;;26.80;58.50;;;;;;5096153;28;19972;-55
2023/07/19 02:53:58;;;;;;;;;;;26.80;58.50;;;;;;5096237;28;20292;-55
2023/07/19 02:56:25;;;;;;;;;;;26.70;58.40;;;;;;5095938;28;19924;-55
2023/07/19 02:58:52;;;;;;;;;;;26.70;58.40;;;;;;5096165;28;20355;-55
2023/07/19 03:01:19;;;;;;;;;;;26.80;58.50;;;;;;5095347;28;19969;-56
2023/07/19 03:03:47;;;;;;;;;;;26.80;58.50;;;;;;5095226;28;19931;-55
2023/07/19 03:06:15;;;;;;;;;;;26.80;58.50;;;;;;5095277;28;19932;-54
2023/07/19 03:08:43;;;;;;;;;;;26.80;58.50;;;;;;5095096;28;20299;-54
2023/07/19 03:11:10;;;;;;;;;;;26.80;58.50;;;;;;5094437;28;19977;-54
2023/07/19 03:13:40;;;;;;;;;;;26.70;58.40;;;;;;5094913;28;21370;-56
2023/07/19 03:16:07;;;;;;;;;;;26.80;58.50;;;;;;5095980;28;19924;-55
2023/07/19 03:18:34;;;;;;;;;;;26.80;58.50;;;;;;5096083;28;20283;-55
2023/07/19 03:21:01;;;;;;;;;;;26.80;58.50;;;;;;5095560;28;20019;-55
2023/07/19 03:23:30;;;;;;;;;;;26.80;58.50;;;;;;5095396;28;19930;-54
2023/07/19 03:25:58;;;;;;;;;;;26.80;58.50;;;;;;5095665;28;19924;-55
2023/07/19 03:28:25;;;;;;;;;;;26.80;58.50;;;;;;5095360;28;20023;-55
2023/07/19 03:30:54;;;;;;;;;;;26.80;58.40;;;;;;5095286;28;19924;-55
2023/07/19 03:33:22;;;;;;;;;;;26.80;58.40;;;;;;5093985;28;20372;-56
2023/07/19 03:35:50;;;;;;;;;;;26.80;58.40;;;;;;5095545;28;19963;-54
2023/07/19 03:38:21;;;;;;;;;;;26.80;58.40;;;;;;5095109;28;19931;-55
2023/07/19 03:40:48;;;;;;;;;;;26.80;58.40;;;;;;5095123;28;20015;-56
2023/07/19 03:43:15;;;;;;;;;;;26.80;58.40;;;;;;5095042;28;20439;-56
2023/07/19 03:45:42;;;;;;;;;;;26.80;58.40;;;;;;5094940;28;20447;-53
2023/07/19 03:48:09;;;;;;;;;;;26.80;58.90;;;;;;5095301;28;20015;-56
2023/07/19 03:50:36;;;;;;;;;;;26.80;58.30;;;;;;5094681;28;19931;-56
2023/07/19 03:53:04;;;;;;;;;;;26.80;58.30;;;;;;5094920;28;20014;-55
2023/07/19 03:55:32;;;;;;;;;;;26.80;58.30;;;;;;5094244;28;20006;-56
2023/07/19 03:57:59;;;;;;;;;;;26.80;58.30;;;;;;5094858;28;19936;-55
2023/07/19 04:00:27;;;;;;;;;;;26.80;58.30;;;;;;5094062;28;19951;-56
2023/07/19 04:02:54;;;;;;;;;;;26.80;58.30;;;;;;5094237;28;20001;-56
2023/07/19 04:05:21;;;;;;;;;;;26.80;58.20;;;;;;5094033;28;19924;-56
2023/07/19 04:07:48;;;;;;;;;;;26.80;58.20;;;;;;5091089;28;19932;-55
2023/07/19 04:10:15;;;;;;;;;;;26.80;58.20;;;;;;5089360;28;19928;-55
2023/07/19 04:12:42;;;;;;;;;;;26.80;58.20;;;;;;5092989;28;19928;-56
2023/07/19 04:15:09;;;;;;;;;;;26.80;58.20;;;;;;5076327;28;19973;-56
2023/07/19 04:17:36;;;;;;;;;;;26.80;58.20;;;;;;5074532;28;19924;-55
2023/07/19 04:20:03;;;;;;;;;;;26.90;58.20;;;;;;5078118;28;19928;-55
2023/07/19 04:22:30;;;;;;;;;;;26.80;58.20;;;;;;5074040;28;20078;-57
2023/07/19 04:24:58;;;;;;;;;;;26.90;58.20;;;;;;5074426;28;19924;-55
2023/07/19 04:27:25;;;;;;;;;;;26.80;58.10;;;;;;5073972;28;19939;-55
2023/07/19 04:29:52;;;;;;;;;;;26.90;58.20;;;;;;5078367;28;20003;-56
2023/07/19 04:32:19;;;;;;;;;;;26.90;58.20;;;;;;5073877;28;20022;-55
2023/07/19 04:34:46;;;;;;;;;;;26.90;58.10;;;;;;5073661;28;19925;-55
2023/07/19 04:37:13;;;;;;;;;;;26.90;58.10;;;;;;5073653;28;19971;-56
2023/07/19 04:39:40;;;;;;;;;;;26.90;58.10;;;;;;5073553;28;19924;-55
2023/07/19 04:42:08;;;;;;;;;;;26.80;58.00;;;;;;5073610;28;20019;-55
2023/07/19 04:44:38;;;;;;;;;;;26.70;58.00;;;;;;5074006;28;20364;-56
2023/07/19 04:47:05;;;;;;;;;;;26.60;58.00;;;;;;5073513;28;19924;-53
2023/07/19 04:49:33;;;;;;;;;;;26.40;57.40;;;;;;5082720;28;19924;-55
2023/07/19 04:52:00;;;;;;;;;;;26.20;57.00;;;;;;5093617;28;19924;-55
2023/07/19 04:54:27;;;;;;;;;;;26.00;56.30;;;;;;5109904;28;19924;-56
2023/07/19 04:56:54;;;;;;;;;;;25.70;55.90;;;;;;5113678;28;19923;-57
2023/07/19 04:59:21;;;;;;;;;;;25.40;55.40;;;;;;5113710;28;20018;-55
2023/07/19 05:01:49;;;;;;;;;;;25.20;55.30;;;;;;5113592;28;20291;-56
2023/07/19 05:04:16;;;;;;;;;;;24.90;54.90;;;;;;5112910;28;19924;-56
2023/07/19 05:06:43;;;;;;;;;;;24.70;55.20;;;;;;5113158;28;19973;-55
2023/07/19 05:09:10;;;;;;;;;;;24.40;55.00;;;;;;5112882;28;19924;-56
2023/07/19 05:11:37;;;;;;;;;;;24.10;55.10;;;;;;5098019;28;19979;-58
2023/07/19 05:14:04;;;;;;;;;;;23.90;55.10;;;;;;5092491;28;19999;-53
2023/07/19 05:16:33;;;;;;;;;;;23.60;54.90;;;;;;5092113;28;19923;-55
2023/07/19 05:19:00;;;;;;;;;;;23.40;54.80;;;;;;5082984;28;19924;-53
2023/07/19 05:21:27;;;;;;;;;;;23.20;55.00;;;;;;5089349;28;19924;-56
2023/07/19 05:23:54;;;;;;;;;;;22.90;54.60;;;;;;5084060;28;19924;-54
2023/07/19 05:26:24;;;;;;;;;;;22.70;54.60;;;;;;5084934;28;19932;-56
2023/07/19 05:28:51;;;;;;;;;;;22.50;54.90;;;;;;5075747;28;19924;-53
2023/07/19 05:31:18;;;;;;;;;;;22.30;55.40;;;;;;5085160;28;19924;-54
2023/07/19 05:33:46;;;;;;;;;;;22.20;55.90;;;;;;5080965;28;19978;-53
2023/07/19 05:36:13;;;;;;;;;;;22.10;55.40;;;;;;5066731;28;19932;-52
2023/07/19 05:38:41;;;;;;;;;;;21.90;55.80;;;;;;5068050;28;20368;-53
2023/07/19 05:41:07;;;;;;;;;;;21.80;55.60;;;;;;5067279;28;19975;-52
2023/07/19 05:43:34;;;;;;;;;;;21.70;56.30;;;;;;5061870;28;19932;-50
2023/07/19 05:46:02;;;;;;;;;;;21.70;56.50;;;;;;5063776;28;19935;-53
2023/07/19 05:48:30;;;;;;;;;;;21.60;56.90;;;;;;5064078;28;19928;-52
2023/07/19 05:50:57;;;;;;;;;;;21.60;57.10;;;;;;5072078;28;19928;-53
2023/07/19 05:53:24;;;;;;;;;;;21.50;57.50;;;;;;5071700;28;20385;-56
2023/07/19 05:55:52;;;;;;;;;;;21.50;57.50;;;;;;5075582;28;20010;-50
2023/07/19 05:58:19;;;;;;;;;;;21.50;57.70;;;;;;5073175;28;19978;-53
2023/07/19 06:00:47;;;;;;;;;;;21.50;57.50;;;;;;5077552;28;19924;-51
2023/07/19 06:03:16;;;;;;;;;;;21.50;57.60;;;;;;5063563;28;19939;-54
2023/07/19 06:05:44;;;;;;;;;;;21.50;57.80;;;;;;5070113;28;22002;-51
2023/07/19 06:08:11;;;;;;;;;;;21.50;58.00;;;;;;5066224;28;19990;-53
2023/07/19 06:10:51;;;;;;;;;;;21.50;58.00;;;;;;5070238;28;20125;-52
2023/07/19 06:13:20;;;;;;;;;;;21.40;58.70;;;;;;5069880;28;19986;-54
2023/07/19 06:15:47;;;;;;;;;;;21.40;59.00;;;;;;5068293;28;19932;-54
2023/07/19 06:18:14;;;;;;;;;;;21.40;59.00;;;;;;5076424;28;19930;-55
2023/07/19 06:20:41;;;;;;;;;;;21.40;59.10;;;;;;5072516;28;20285;-53
2023/07/19 06:23:08;;;;;;;;;;;21.40;58.90;;;;;;5082604;28;20287;-56
2023/07/19 06:25:35;;;;;;;;;;;21.40;58.90;;;;;;5072571;28;19932;-51
2023/07/19 06:28:02;;;;;;;;;;;21.30;59.60;;;;;;5069593;28;19928;-50
2023/07/19 06:30:30;;;;;;;;;;;21.40;59.00;;;;;;5076378;28;20026;-52
2023/07/19 06:32:58;;;;;;;;;;;21.40;59.60;;;;;;5075629;28;20361;-54
2023/07/19 06:35:25;;;;;;;;;;;21.40;60.00;;;;;;5068669;28;19959;-55
2023/07/19 06:37:52;;;;;;;;;;;21.30;60.20;;;;;;5076029;28;19930;-53
2023/07/19 06:40:19;;;;;;;;;;;21.30;60.40;;;;;;5074005;28;19924;-55
2023/07/19 06:42:46;;;;;;;;;;;21.30;60.60;;;;;;5068620;28;20285;-56
2023/07/19 06:45:13;;;;;;;;;;;21.30;61.30;;;;;;5068859;28;20359;-55
2023/07/19 06:47:40;;;;;;;;;;;21.40;61.40;;;;;;5074745;28;20013;-54
2023/07/19 06:50:08;;;;;;;;;;;21.40;61.40;;;;;;5076461;28;19932;-53
2023/07/19 06:52:35;;;;;;;;;;;21.50;61.50;;;;;;5074301;28;20420;-56
2023/07/19 06:55:03;;;;;;;;;;;21.50;61.40;;;;;;5072265;28;20048;-52
2023/07/19 06:57:30;;;;;;;;;;;21.50;61.40;;;;;;5075126;28;19929;-54
2023/07/19 06:59:58;;;;;;;;;;;21.50;61.60;;;;;;5069362;28;19986;-51
2023/07/19 07:02:26;;;;;;;;;;;21.50;60.90;;;;;;5073635;28;19936;-54
2023/07/19 07:04:53;;;;;;;;;;;21.40;61.40;;;;;;5074194;28;20096;-58
2023/07/19 07:07:20;;;;;;;;;;;21.40;61.70;;;;;;5073816;28;19990;-57
2023/07/19 07:09:47;;;;;;;;;;;21.40;61.90;;;;;;5074617;28;19928;-56
2023/07/19 07:12:13;;;;;;;;;;;21.40;61.50;;;;;;5072219;28;20009;-56
2023/07/19 07:14:41;;;;;;;;;;;21.40;61.80;;;;;;5071687;28;20011;-56
2023/07/19 07:17:09;;;;;;;;;;;21.40;61.50;;;;;;5070260;28;20261;-54
2023/07/19 07:19:36;;;;;;;;;;;21.40;61.70;;;;;;5074794;28;20376;-55
2023/07/19 07:22:03;;;;;;;;;;;21.50;61.70;;;;;;5074679;28;20190;-56
2023/07/19 07:24:30;;;;;;;;;;;21.50;61.80;;;;;;5078305;28;20023;-55
2023/07/19 07:26:58;;;;;;;;;;;21.50;62.10;;;;;;5078861;28;19939;-56
2023/07/19 07:29:26;;;;;;;;;;;21.50;61.50;;;;;;5079089;28;20386;-57
2023/07/19 07:31:52;;;;;;;;;;;21.50;62.10;;;;;;5074564;28;19974;-56
2023/07/19 07:34:20;;;;;;;;;;;21.50;61.90;;;;;;5075373;28;19940;-56
2023/07/19 07:36:50;;;;;;;;;;;21.50;62.40;;;;;;5071430;28;20389;-54
2023/07/19 07:39:19;;;;;;;;;;;21.50;62.00;;;;;;5075432;28;19924;-55
2023/07/19 07:41:46;;;;;;;;;;;21.60;61.60;;;;;;5069967;28;20411;-55
2023/07/19 07:44:12;;;;;;;;;;;21.60;62.30;;;;;;5076691;28;19990;-50
2023/07/19 07:46:39;;;;;;;;;;;21.60;62.30;;;;;;5074448;28;20326;-55
2023/07/19 07:49:07;;;;;;;;;;;21.60;62.20;;;;;;5068156;28;19928;-55
2023/07/19 07:51:37;;;;;;;;;;;21.70;62.40;;;;;;5066947;28;19968;-56
2023/07/19 07:54:05;;;;;;;;;;;21.70;62.10;;;;;;5076209;28;19986;-55
2023/07/19 07:56:33;;;;;;;;;;;21.70;62.10;;;;;;5078993;28;19932;-57
2023/07/19 07:59:00;;;;;;;;;;;21.80;62.20;;;;;;5078428;28;20388;-56
2023/07/19 08:01:27;;;;;;;;;;;21.90;61.90;;;;;;5078724;28;19977;-57
2023/07/19 08:03:54;;;;;;;;;;;21.80;61.80;;;;;;5071474;28;20191;-55
2023/07/19 08:06:21;;;;;;;;;;;21.80;62.00;;;;;;5070621;28;20656;-56
2023/07/19 08:08:48;;;;;;;;;;;21.90;61.50;;;;;;5061942;28;20401;-56
2023/07/19 08:11:15;;;;;;;;;;;21.90;61.60;;;;;;5075932;28;19932;-56
2023/07/19 08:13:42;;;;;;;;;;;21.90;61.60;;;;;;5073269;28;20036;-54
2023/07/19 08:16:09;;;;;;;;;;;21.90;61.30;;;;;;5079228;28;19933;-55
2023/07/19 08:18:36;;;;;;;;;;;22.00;61.40;;;;;;5071393;28;19928;-58
2023/07/19 08:21:04;;;;;;;;;;;22.00;61.30;;;;;;5074045;28;20023;-57
2023/07/19 08:23:31;;;;;;;;;;;22.10;60.80;;;;;;5081448;28;19937;-55
2023/07/19 08:25:58;;;;;;;;;;;22.10;60.90;;;;;;5070034;28;20046;-56
2023/07/19 08:28:26;;;;;;;;;;;22.10;60.50;;;;;;5079801;28;19977;-54
2023/07/19 08:30:53;;;;;;;;;;;22.20;60.30;;;;;;5074190;28;19960;-56
2023/07/19 08:33:21;;;;;;;;;;;22.20;60.40;;;;;;5071664;28;20389;-56
2023/07/19 08:35:49;;;;;;;;;;;22.20;60.10;;;;;;5076922;28;20305;-56
2023/07/19 08:38:17;;;;;;;;;;;22.20;59.90;;;;;;5075566;28;19929;-55
2023/07/19 08:40:50;;;;;;;;;;;22.20;59.80;;;;;;5074842;28;20342;-55
2023/07/19 08:43:17;;;;;;;;;;;22.20;59.40;;;;;;5072361;28;20012;-56
2023/07/19 08:45:44;;;;;;;;;;;22.20;59.60;;;;;;5067471;28;20302;-56
2023/07/19 08:48:11;;;;;;;;;;;22.20;59.60;;;;;;5071510;28;20011;-57
2023/07/19 08:50:39;;;;;;;;;;;22.20;59.20;;;;;;5073645;28;19932;-56
2023/07/19 08:53:06;;;;;;;;;;;22.30;59.60;;;;;;5068963;28;19924;-56
2023/07/19 08:55:33;;;;;;;;;;;22.30;59.40;;;;;;5070959;28;19979;-58
2023/07/19 08:58:00;;;;;;;;;;;22.30;59.50;;;;;;5073691;28;20392;-56
2023/07/19 09:00:30;;;;;;;;;;;22.30;59.30;;;;;;5083746;28;19936;-57
2023/07/19 09:02:57;;;;;;;;;;;22.30;59.20;;;;;;5072957;28;19973;-54
2023/07/19 09:05:27;;;;;;;;;;;22.40;58.90;;;;;;5076457;28;19932;-55
2023/07/19 09:07:59;;;;;;;;;;;22.40;59.20;;;;;;5071883;28;19929;-57
2023/07/19 09:10:26;;;;;;;;;;;22.50;58.60;;;;;;5078295;28;19928;-56
2023/07/19 09:12:53;;;;;;;;;;;22.50;58.70;;;;;;5072773;28;20495;-58
2023/07/19 09:15:20;;;;;;;;;;;22.50;58.80;;;;;;5072587;28;20019;-56
2023/07/19 09:17:47;;;;;;;;;;;22.50;58.80;;;;;;5076198;28;19975;-56
2023/07/19 09:20:16;;;;;;;;;;;22.50;59.10;;;;;;5069760;28;20345;-56
2023/07/19 09:22:44;;;;;;;;;;;22.50;59.60;;;;;;5075969;28;19928;-57
2023/07/19 09:25:12;;;;;;;;;;;22.60;59.60;;;;;;5075428;28;20015;-56
2023/07/19 09:27:43;;;;;;;;;;;22.60;59.20;;;;;;5070954;28;19933;-59
2023/07/19 09:30:14;;;;;;;;;;;22.60;59.40;;;;;;5076251;28;19931;-56
2023/07/19 09:32:41;;;;;;;;;;;22.50;59.10;;;;;;5075144;28;20015;-56
2023/07/19 09:35:08;;;;;;;;;;;22.50;59.40;;;;;;5073342;28;19925;-55
2023/07/19 09:37:35;;;;;;;;;;;22.50;59.40;;;;;;5078586;28;20396;-55
2023/07/19 09:40:04;;;;;;;;;;;22.50;59.10;;;;;;5077223;28;19929;-55
2023/07/19 09:42:36;;;;;;;;;;;22.60;59.60;;;;;;5067946;28;19928;-55
2023/07/19 09:45:06;;;;;;;;;;;22.60;59.30;;;;;;5068373;28;20261;-58
2023/07/19 09:47:34;;;;;;;;;;;22.60;59.20;;;;;;5070204;28;19928;-56
2023/07/19 09:50:02;;;;;;;;;;;22.70;59.80;;;;;;5069540;28;19938;-54
2023/07/19 09:52:29;;;;;;;;;;;22.70;59.50;;;;;;5070947;28;20471;-57
2023/07/19 09:54:56;;;;;;;;;;;22.70;59.30;;;;;;5070242;28;20456;-56
2023/07/19 09:57:26;;;;;;;;;;;22.60;59.80;;;;;;5067073;28;19928;-59
2023/07/19 09:59:53;;;;;;;;;;;22.60;59.90;;;;;;5077734;28;19986;-57
2023/07/19 10:02:23;;;;;;;;;;;22.60;59.20;;;;;;5074973;28;19986;-57
2023/07/19 10:04:51;;;;;;;;;;;22.70;59.20;;;;;;5076605;28;19935;-57
2023/07/19 10:07:19;;;;;;;;;;;22.60;58.80;;;;;;5076896;28;19960;-57
2023/07/19 10:09:48;;;;;;;;;;;22.60;58.60;;;;;;5074963;28;19928;-58
2023/07/19 10:12:25;;;;;;;;;;;22.60;58.20;;;;;;5075133;28;19928;-57
2023/07/19 10:15:06;;;;;;;;;;;22.60;58.60;;;;;;5073063;28;19943;-57
2023/07/19 10:17:53;;;;;;;;;;;22.50;58.50;;;;;;5075668;28;19924;-57
2023/07/19 10:20:34;;;;;;;;;;;22.50;58.40;;;;;;5077652;28;19928;-57
2023/07/19 10:23:03;;;;;;;;;;;22.40;58.70;;;;;;5081128;28;19924;-57
2023/07/19 10:25:37;;;;;;;;;;;22.40;58.00;;;;;;5076852;28;19974;-56
2023/07/19 10:28:05;;;;;;;;;;;22.30;58.20;;;;;;5081573;28;20348;-56
2023/07/19 10:30:49;;;;;;;;;;;22.30;58.30;;;;;;5089283;28;19932;-56
2023/07/19 10:33:27;;;;;;;;;;;22.20;58.00;;;;;;5077877;28;19929;-54
2023/07/19 10:35:56;;;;;;;;;;;22.20;58.30;;;;;;5075457;28;19939;-56
2023/07/19 10:38:24;;;;;;;;;;;22.20;57.90;;;;;;5075082;28;20112;-56
2023/07/19 10:41:03;;;;;;;;;;;22.20;57.90;;;;;;5077666;28;19975;-55
2023/07/19 10:43:32;;;;;;;;;;;22.10;57.80;;;;;;5079841;28;20659;-59
2023/07/19 10:46:13;;;;;;;;;;;22.20;57.90;;;;;;5079337;28;19929;-58
2023/07/19 10:48:41;;;;;;;;;;;22.10;58.50;;;;;;5080971;28;19933;-57
2023/07/19 10:51:09;;;;;;;;;;;22.10;58.60;;;;;;5074611;28;19928;-59
2023/07/19 10:53:41;;;;;;;;;;;22.10;58.60;;;;;;5079557;28;19939;-58
2023/07/19 10:56:08;;;;;;;;;;;22.10;58.30;;;;;;5075938;28;20614;-59
2023/07/19 10:58:35;;;;;;;;;;;22.20;58.30;;;;;;5073368;28;19928;-60
2023/07/19 11:01:02;;;;;;;;;;;22.20;58.40;;;;;;5074914;28;19924;-59
2023/07/19 11:03:29;;;;;;;;;;;22.20;58.30;;;;;;5076341;28;19928;-56
2023/07/19 11:05:57;;;;;;;;;;;22.20;58.30;;;;;;5076941;28;19928;-56
2023/07/19 11:08:26;;;;;;;;;;;22.20;58.00;;;;;;5078923;28;19935;-57
2023/07/19 11:10:54;;;;;;;;;;;22.20;57.90;;;;;;5074247;28;19959;-57
2023/07/19 11:13:22;;;;;;;;;;;22.20;57.80;;;;;;5079087;28;20061;-55
2023/07/19 11:15:53;;;;;;;;;;;22.20;57.70;;;;;;5078390;28;19990;-56
2023/07/19 11:18:24;;;;;;;;;;;22.10;58.60;;;;;;5082831;28;19934;-58
2023/07/19 11:20:52;;;;;;;;;;;22.00;58.60;;;;;;5084324;28;19928;-56
2023/07/19 11:23:19;;;;;;;;;;;22.00;59.40;;;;;;5075861;28;19928;-56
2023/07/19 11:25:46;;;;;;;;;;;22.00;59.40;;;;;;5074658;28;19932;-55
2023/07/19 11:28:13;;;;;;;;;;;22.00;59.30;;;;;;5075689;28;20324;-52
2023/07/19 11:30:41;;;;;;;;;;;22.00;59.80;;;;;;5072162;28;20038;-48
2023/07/19 11:33:12;;;;;;;;;;;22.10;60.00;;;;;;5073958;28;19949;-55
2023/07/19 11:35:39;;;;;;;;;;;22.00;60.40;;;;;;5075148;28;19974;-58
2023/07/19 11:38:06;;;;;;;;;;;22.10;60.20;;;;;;5078344;28;19932;-57
2023/07/19 11:40:33;;;;;;;;;;;22.10;59.80;;;;;;5079378;28;20374;-57
2023/07/19 11:43:00;;;;;;;;;;;22.00;60.20;;;;;;5075492;28;19932;-57
2023/07/19 11:45:28;;;;;;;;;;;22.10;60.20;;;;;;5078149;28;20265;-55
2023/07/19 11:47:57;;;;;;;;;;;22.10;59.90;;;;;;5080055;28;19928;-59
2023/07/19 11:50:27;;;;;;;;;;;22.20;60.60;;;;;;5083285;28;19936;-57
2023/07/19 11:52:59;;;;;;;;;;;22.10;60.20;;;;;;5071756;28;19961;-58
2023/07/19 11:55:26;;;;;;;;;;;22.20;60.60;;;;;;5072757;28;19932;-57
2023/07/19 11:57:53;;;;;;;;;;;22.20;60.40;;;;;;5076663;28;20378;-57
2023/07/19 12:00:22;;;;;;;;;;;22.30;60.10;;;;;;5073679;28;20487;-57
2023/07/19 12:02:50;;;;;;;;;;;22.30;60.40;;;;;;5076479;28;20352;-56
2023/07/19 12:05:19;;;;;;;;;;;22.30;59.70;;;;;;5073726;28;20269;-57
2023/07/19 12:07:47;;;;;;;;;;;22.40;60.20;;;;;;5078657;28;19924;-54
2023/07/19 12:10:14;;;;;;;;;;;22.40;60.20;;;;;;5078678;28;19989;-54
2023/07/19 12:12:41;;;;;;;;;;;22.40;60.40;;;;;;5074281;28;19986;-56
2023/07/19 12:15:08;;;;;;;;;;;22.50;60.50;;;;;;5078389;28;20347;-55
2023/07/19 12:17:36;;;;;;;;;;;22.50;60.30;;;;;;5079949;28;19971;-58
2023/07/19 12:20:05;;;;;;;;;;;22.50;60.50;;;;;;5076744;28;19930;-58
2023/07/19 12:22:33;;;;;;;;;;;22.60;60.20;;;;;;5070830;28;20380;-57
2023/07/19 12:25:01;;;;;;;;;;;22.60;60.20;;;;;;5075119;28;19931;-57
2023/07/19 12:27:28;;;;;;;;;;;22.60;59.90;;;;;;5071684;28;20596;-57
2023/07/19 12:29:55;;;;;;;;;;;22.60;59.90;;;;;;5072639;28;19975;-56
2023/07/19 12:32:30;;;;;;;;;;;22.60;59.90;;;;;;5078751;28;20016;-57
2023/07/19 12:34:58;;;;;;;;;;;22.60;60.50;;;;;;5072438;28;19938;-58
2023/07/19 12:37:25;;;;;;;;;;;22.70;60.40;;;;;;5079739;28;19925;-57
2023/07/19 12:39:52;;;;;;;;;;;22.60;60.40;;;;;;5079264;28;19986;-52
2023/07/19 12:42:20;;;;;;;;;;;22.70;60.50;;;;;;5069018;28;19979;-57
2023/07/19 12:44:47;;;;;;;;;;;22.70;60.80;;;;;;5073991;28;20003;-59
2023/07/19 12:47:15;;;;;;;;;;;22.80;63.40;;;;;;5076217;28;19970;-59
2023/07/19 12:49:42;;;;;;;;;;;22.90;63.30;;;;;;5081273;28;19934;-58
2023/07/19 12:52:11;;;;;;;;;;;23.10;62.80;;;;;;5074999;28;19928;-58
2023/07/19 12:54:39;;;;;;;;;;;23.30;62.40;;;;;;5080290;28;19931;-59
2023/07/19 12:57:06;;;;;;;;;;;23.40;62.00;;;;;;5080284;28;19936;-58
2023/07/19 12:59:33;;;;;;;;;;;23.50;61.80;;;;;;5071887;28;20397;-57
2023/07/19 13:02:01;;;;;;;;;;;23.60;61.30;;;;;;5072057;28;20293;-58
2023/07/19 13:04:29;;;;;;;;;;;23.70;61.00;;;;;;5077406;28;19928;-56
2023/07/19 13:06:58;;;;;;;;;;;23.70;60.70;;;;;;5081503;28;19933;-56
2023/07/19 13:09:26;;;;;;;;;;;23.70;60.60;;;;;;5075925;28;19971;-56
2023/07/19 13:11:53;;;;;;;;;;;23.80;60.50;;;;;;5075081;28;21819;-56
2023/07/19 13:14:21;;;;;;;;;;;23.80;60.40;;;;;;5076148;28;19933;-58
2023/07/19 13:16:48;;;;;;;;;;;23.90;60.20;;;;;;5069493;28;20373;-58
2023/07/19 13:19:36;;;;;;;;;;;23.90;60.30;;;;;;5078378;28;19960;-57
2023/07/19 13:22:04;;;;;;;;;;;23.90;60.30;;;;;;5075729;28;19931;-55
2023/07/19 13:24:31;;;;;;;;;;;23.90;60.20;;;;;;5073560;28;19928;-54
2023/07/19 13:26:59;;;;;;;;;;;23.90;60.30;;;;;;5074042;28;19974;-59
2023/07/19 13:29:26;;;;;;;;;;;23.90;60.10;;;;;;5073372;28;19931;-55
2023/07/19 13:31:55;;;;;;;;;;;23.90;60.10;;;;;;5076723;28;19932;-50
2023/07/19 13:34:23;;;;;;;;;;;24.00;60.30;;;;;;5072099;28;20043;-54
2023/07/19 13:36:51;;;;;;;;;;;24.00;60.10;;;;;;5069636;28;19928;-52
2023/07/19 13:39:20;;;;;;;;;;;24.00;60.00;;;;;;5078847;28;19924;-57
2023/07/19 13:41:47;;;;;;;;;;;24.00;59.90;;;;;;5072941;28;19939;-58
2023/07/19 13:44:14;;;;;;;;;;;24.10;59.80;;;;;;5080463;28;19933;-57
2023/07/19 13:46:41;;;;;;;;;;;24.10;59.50;;;;;;5070443;28;20366;-58
2023/07/19 13:49:09;;;;;;;;;;;24.10;57.20;;;;;;5072774;28;19951;-57
2023/07/19 13:51:49;;;;;;;;;;;24.00;56.90;;;;;;5081172;28;19932;-56
2023/07/19 13:54:17;;;;;;;;;;;23.90;57.20;;;;;;5074054;28;19925;-57
2023/07/19 13:56:47;;;;;;;;;;;23.80;57.30;;;;;;5076749;28;20300;-57
2023/07/19 13:59:15;;;;;;;;;;;23.70;56.90;;;;;;5076609;28;20267;-58
2023/07/19 14:01:42;;;;;;;;;;;23.60;56.80;;;;;;5078823;28;19940;-57
2023/07/19 14:04:09;;;;;;;;;;;23.60;60.20;;;;;;5078314;28;20387;-59
2023/07/19 14:06:36;;;;;;;;;;;23.60;63.90;;;;;;5079646;28;19948;-58
2023/07/19 14:09:05;;;;;;;;;;;23.80;65.90;;;;;;5080145;28;19924;-59
2023/07/19 14:11:32;;;;;;;;;;;24.00;67.70;;;;;;5082622;28;19925;-57
2023/07/19 14:13:59;;;;;;;;;;;24.30;68.30;;;;;;5082235;28;19969;-58
2023/07/19 14:16:26;;;;;;;;;;;24.50;68.20;;;;;;5077369;28;19925;-57
2023/07/19 14:18:54;;;;;;;;;;;24.70;68.20;;;;;;5082829;28;19932;-57
2023/07/19 14:21:22;;;;;;;;;;;25.00;68.10;;;;;;5072968;28;19925;-53